sensor_id;sensor_type;location;lat;lon;timestamp;temperature;humidity
31837;DHT22;18401;49.344;6.240;2023-07-13T00:02:23;12.90;99.90
31837;DHT22;18401;49.344;6.240;2023-07-13T00:04:48;12.90;99.90
31837;DHT22;18401;49.344;6.240;2023-07-13T00:07:14;12.70;99.90
31837;DHT22;18401;49.344;6.240;2023-07-13T00:09:40;12.60;99.90
31837;DHT22;18401;49.344;6.240;2023-07-13T00:12:28;12.50;99.90
31837;DHT22;18401;49.344;6.240;2023-07-13T00:14:57;12.40;99.90
31837;DHT22;18401;49.344;6.240;2023-07-13T00:17:23;12.30;99.90
31837;DHT22;18401;49.344;6.240;2023-07-13T00:19:49;12.30;99.90
31837;DHT22;18401;49.344;6.240;2023-07-13T00:22:14;12.40;99.90
31837;DHT22;18401;49.344;6.240;2023-07-13T00:24:40;12.40;99.90
31837;DHT22;18401;49.344;6.240;2023-07-13T00:27:08;12.40;99.90
31837;DHT22;18401;49.344;6.240;2023-07-13T00:29:35;12.30;99.90
31837;DHT22;18401;49.344;6.240;2023-07-13T00:32:02;12.30;99.90
31837;DHT22;18401;49.344;6.240;2023-07-13T00:34:28;12.30;99.90
31837;DHT22;18401;49.344;6.240;2023-07-13T00:36:54;12.30;99.90
31837;DHT22;18401;49.344;6.240;2023-07-13T00:39:20;12.30;99.90
31837;DHT22;18401;49.344;6.240;2023-07-13T00:41:46;12.20;99.90
31837;DHT22;18401;49.344;6.240;2023-07-13T00:44:16;12.10;99.90
31837;DHT22;18401;49.344;6.240;2023-07-13T00:46:41;12.00;99.90
31837;DHT22;18401;49.344;6.240;2023-07-13T00:49:10;12.10;99.90
31837;DHT22;18401;49.344;6.240;2023-07-13T00:51:43;12.30;99.90
31837;DHT22;18401;49.344;6.240;2023-07-13T00:54:13;12.30;99.90
31837;DHT22;18401;49.344;6.240;2023-07-13T00:56:41;12.40;99.90
31837;DHT22;18401;49.344;6.240;2023-07-13T00:59:10;12.50;99.90
31837;DHT22;18401;49.344;6.240;2023-07-13T01:01:36;12.50;99.90
31837;DHT22;18401;49.344;6.240;2023-07-13T01:04:02;12.60;99.90
31837;DHT22;18401;49.344;6.240;2023-07-13T01:06:28;12.60;99.90
31837;DHT22;18401;49.344;6.240;2023-07-13T01:08:56;12.60;99.90
31837;DHT22;18401;49.344;6.240;2023-07-13T01:11:23;12.60;99.90
31837;DHT22;18401;49.344;6.240;2023-07-13T01:13:49;12.60;99.90
31837;DHT22;18401;49.344;6.240;2023-07-13T01:16:22;12.60;99.90
31837;DHT22;18401;49.344;6.240;2023-07-13T01:18:49;12.70;99.90
31837;DHT22;18401;49.344;6.240;2023-07-13T01:21:15;12.80;99.90
31837;DHT22;18401;49.344;6.240;2023-07-13T01:23:41;12.80;99.90
31837;DHT22;18401;49.344;6.240;2023-07-13T01:26:09;12.90;99.90
31837;DHT22;18401;49.344;6.240;2023-07-13T01:28:35;12.80;99.90
31837;DHT22;18401;49.344;6.240;2023-07-13T01:31:03;12.80;99.90
31837;DHT22;18401;49.344;6.240;2023-07-13T01:33:29;12.80;99.90
31837;DHT22;18401;49.344;6.240;2023-07-13T01:35:55;12.90;99.90
31837;DHT22;18401;49.344;6.240;2023-07-13T01:38:23;12.80;99.90
31837;DHT22;18401;49.344;6.240;2023-07-13T01:40:50;12.80;99.90
31837;DHT22;18401;49.344;6.240;2023-07-13T01:43:17;12.80;99.90
31837;DHT22;18401;49.344;6.240;2023-07-13T01:45:44;12.80;99.90
31837;DHT22;18401;49.344;6.240;2023-07-13T01:48:11;12.80;99.90
31837;DHT22;18401;49.344;6.240;2023-07-13T01:50:36;12.90;99.90
31837;DHT22;18401;49.344;6.240;2023-07-13T01:53:02;12.90;99.90
31837;DHT22;18401;49.344;6.240;2023-07-13T01:55:29;13.00;99.90
31837;DHT22;18401;49.344;6.240;2023-07-13T01:57:55;13.00;99.90
31837;DHT22;18401;49.344;6.240;2023-07-13T02:00:21;13.00;99.90
31837;DHT22;18401;49.344;6.240;2023-07-13T02:02:48;13.10;99.90
31837;DHT22;18401;49.344;6.240;2023-07-13T02:05:14;13.20;99.90
31837;DHT22;18401;49.344;6.240;2023-07-13T02:07:40;13.30;99.90
31837;DHT22;18401;49.344;6.240;2023-07-13T02:10:07;13.50;99.90
31837;DHT22;18401;49.344;6.240;2023-07-13T02:12:33;13.60;99.90
31837;DHT22;18401;49.344;6.240;2023-07-13T02:14:59;13.60;99.90
31837;DHT22;18401;49.344;6.240;2023-07-13T02:17:26;13.70;99.90
31837;DHT22;18401;49.344;6.240;2023-07-13T02:19:52;13.70;99.90
31837;DHT22;18401;49.344;6.240;2023-07-13T02:22:18;13.80;99.90
31837;DHT22;18401;49.344;6.240;2023-07-13T02:24:44;13.90;99.90
31837;DHT22;18401;49.344;6.240;2023-07-13T02:27:09;13.90;99.90
31837;DHT22;18401;49.344;6.240;2023-07-13T02:29:35;14.00;99.90
31837;DHT22;18401;49.344;6.240;2023-07-13T02:32:01;14.00;99.90
31837;DHT22;18401;49.344;6.240;2023-07-13T02:34:27;14.00;99.90
31837;DHT22;18401;49.344;6.240;2023-07-13T02:36:52;14.00;99.90
31837;DHT22;18401;49.344;6.240;2023-07-13T02:39:19;14.00;99.90
31837;DHT22;18401;49.344;6.240;2023-07-13T02:41:45;13.90;99.90
31837;DHT22;18401;49.344;6.240;2023-07-13T02:44:13;13.90;99.90
31837;DHT22;18401;49.344;6.240;2023-07-13T02:46:39;13.90;99.90
31837;DHT22;18401;49.344;6.240;2023-07-13T02:49:05;14.00;99.90
31837;DHT22;18401;49.344;6.240;2023-07-13T02:51:31;14.00;99.90
31837;DHT22;18401;49.344;6.240;2023-07-13T02:54:03;14.00;99.90
31837;DHT22;18401;49.344;6.240;2023-07-13T02:56:30;14.00;99.90
31837;DHT22;18401;49.344;6.240;2023-07-13T02:58:56;14.00;99.90
31837;DHT22;18401;49.344;6.240;2023-07-13T03:01:23;14.00;99.90
31837;DHT22;18401;49.344;6.240;2023-07-13T03:03:50;14.00;99.90
31837;DHT22;18401;49.344;6.240;2023-07-13T03:06:16;14.00;99.90
31837;DHT22;18401;49.344;6.240;2023-07-13T03:08:42;13.90;99.90
31837;DHT22;18401;49.344;6.240;2023-07-13T03:11:13;13.90;99.90
31837;DHT22;18401;49.344;6.240;2023-07-13T03:13:40;13.90;99.90
31837;DHT22;18401;49.344;6.240;2023-07-13T03:16:08;13.90;99.90
31837;DHT22;18401;49.344;6.240;2023-07-13T03:18:34;14.00;99.90
31837;DHT22;18401;49.344;6.240;2023-07-13T03:20:59;14.00;99.90
31837;DHT22;18401;49.344;6.240;2023-07-13T03:23:25;14.00;99.90
31837;DHT22;18401;49.344;6.240;2023-07-13T03:26:11;14.00;99.90
31837;DHT22;18401;49.344;6.240;2023-07-13T03:28:38;14.00;99.90
31837;DHT22;18401;49.344;6.240;2023-07-13T03:31:13;14.00;99.90
31837;DHT22;18401;49.344;6.240;2023-07-13T03:33:39;14.00;99.90
31837;DHT22;18401;49.344;6.240;2023-07-13T03:36:06;14.00;99.90
31837;DHT22;18401;49.344;6.240;2023-07-13T03:38:32;13.90;99.90
31837;DHT22;18401;49.344;6.240;2023-07-13T03:40:58;13.90;99.90
31837;DHT22;18401;49.344;6.240;2023-07-13T03:43:23;14.00;99.90
31837;DHT22;18401;49.344;6.240;2023-07-13T03:45:49;14.00;99.90
31837;DHT22;18401;49.344;6.240;2023-07-13T03:48:15;14.00;99.90
31837;DHT22;18401;49.344;6.240;2023-07-13T03:50:41;14.10;99.90
31837;DHT22;18401;49.344;6.240;2023-07-13T03:53:07;14.10;99.90
31837;DHT22;18401;49.344;6.240;2023-07-13T03:55:32;14.20;99.90
31837;DHT22;18401;49.344;6.240;2023-07-13T03:58:24;14.30;99.90
31837;DHT22;18401;49.344;6.240;2023-07-13T04:00:46;14.30;99.90
31837;DHT22;18401;49.344;6.240;2023-07-13T04:03:12;14.40;99.90
31837;DHT22;18401;49.344;6.240;2023-07-13T04:05:38;14.50;99.90
31837;DHT22;18401;49.344;6.240;2023-07-13T04:08:06;14.50;99.90
31837;DHT22;18401;49.344;6.240;2023-07-13T04:10:32;14.60;99.90
31837;DHT22;18401;49.344;6.240;2023-07-13T04:12:57;14.60;99.90
31837;DHT22;18401;49.344;6.240;2023-07-13T04:15:23;14.60;99.90
31837;DHT22;18401;49.344;6.240;2023-07-13T04:17:49;14.60;99.90
31837;DHT22;18401;49.344;6.240;2023-07-13T04:20:14;14.70;99.90
31837;DHT22;18401;49.344;6.240;2023-07-13T04:22:40;14.60;99.90
31837;DHT22;18401;49.344;6.240;2023-07-13T04:25:06;14.60;99.90
31837;DHT22;18401;49.344;6.240;2023-07-13T04:27:32;14.50;99.90
31837;DHT22;18401;49.344;6.240;2023-07-13T04:29:57;14.60;99.90
31837;DHT22;18401;49.344;6.240;2023-07-13T04:32:23;14.60;99.90
31837;DHT22;18401;49.344;6.240;2023-07-13T04:34:49;14.70;99.90
31837;DHT22;18401;49.344;6.240;2023-07-13T04:37:20;14.70;99.90
31837;DHT22;18401;49.344;6.240;2023-07-13T04:39:46;14.70;99.90
31837;DHT22;18401;49.344;6.240;2023-07-13T04:42:12;14.70;99.90
31837;DHT22;18401;49.344;6.240;2023-07-13T04:44:37;14.70;99.90
31837;DHT22;18401;49.344;6.240;2023-07-13T04:47:03;14.70;99.90
31837;DHT22;18401;49.344;6.240;2023-07-13T04:49:29;14.80;99.90
31837;DHT22;18401;49.344;6.240;2023-07-13T04:51:55;14.80;99.90
31837;DHT22;18401;49.344;6.240;2023-07-13T04:54:21;14.80;99.90
31837;DHT22;18401;49.344;6.240;2023-07-13T04:56:47;14.90;99.90
31837;DHT22;18401;49.344;6.240;2023-07-13T04:59:13;14.90;99.90
31837;DHT22;18401;49.344;6.240;2023-07-13T05:01:39;15.00;99.90
31837;DHT22;18401;49.344;6.240;2023-07-13T05:04:06;15.00;99.90
31837;DHT22;18401;49.344;6.240;2023-07-13T05:06:32;15.10;99.90
31837;DHT22;18401;49.344;6.240;2023-07-13T05:08:57;15.10;99.90
31837;DHT22;18401;49.344;6.240;2023-07-13T05:11:24;15.30;99.90
31837;DHT22;18401;49.344;6.240;2023-07-13T05:13:49;15.40;99.90
31837;DHT22;18401;49.344;6.240;2023-07-13T05:16:15;15.50;99.90
31837;DHT22;18401;49.344;6.240;2023-07-13T05:18:41;15.60;99.90
31837;DHT22;18401;49.344;6.240;2023-07-13T05:21:09;15.60;99.90
31837;DHT22;18401;49.344;6.240;2023-07-13T05:23:36;15.70;99.90
31837;DHT22;18401;49.344;6.240;2023-07-13T05:26:02;15.80;99.90
31837;DHT22;18401;49.344;6.240;2023-07-13T05:28:29;16.00;99.90
31837;DHT22;18401;49.344;6.240;2023-07-13T05:30:56;16.20;99.90
31837;DHT22;18401;49.344;6.240;2023-07-13T05:33:22;16.30;99.90
31837;DHT22;18401;49.344;6.240;2023-07-13T05:35:48;16.40;99.90
31837;DHT22;18401;49.344;6.240;2023-07-13T05:38:13;16.60;99.90
31837;DHT22;18401;49.344;6.240;2023-07-13T05:40:39;16.70;99.90
31837;DHT22;18401;49.344;6.240;2023-07-13T05:43:07;16.80;99.90
31837;DHT22;18401;49.344;6.240;2023-07-13T05:45:33;16.80;99.90
31837;DHT22;18401;49.344;6.240;2023-07-13T05:47:58;16.90;99.90
31837;DHT22;18401;49.344;6.240;2023-07-13T05:50:25;17.10;99.90
31837;DHT22;18401;49.344;6.240;2023-07-13T05:52:50;17.30;99.90
31837;DHT22;18401;49.344;6.240;2023-07-13T05:55:18;17.30;99.90
31837;DHT22;18401;49.344;6.240;2023-07-13T05:57:43;17.50;99.90
31837;DHT22;18401;49.344;6.240;2023-07-13T06:00:09;17.50;99.90
31837;DHT22;18401;49.344;6.240;2023-07-13T06:02:35;17.60;99.90
31837;DHT22;18401;49.344;6.240;2023-07-13T06:05:01;17.70;99.90
31837;DHT22;18401;49.344;6.240;2023-07-13T06:07:27;17.60;99.90
31837;DHT22;18401;49.344;6.240;2023-07-13T06:09:52;17.60;99.90
31837;DHT22;18401;49.344;6.240;2023-07-13T06:12:18;17.80;99.90
31837;DHT22;18401;49.344;6.240;2023-07-13T06:14:44;17.80;99.90
31837;DHT22;18401;49.344;6.240;2023-07-13T06:17:09;17.90;99.90
31837;DHT22;18401;49.344;6.240;2023-07-13T06:19:35;18.00;99.90
31837;DHT22;18401;49.344;6.240;2023-07-13T06:22:01;18.10;99.90
31837;DHT22;18401;49.344;6.240;2023-07-13T06:24:27;18.20;99.90
31837;DHT22;18401;49.344;6.240;2023-07-13T06:26:52;18.30;99.90
31837;DHT22;18401;49.344;6.240;2023-07-13T06:29:18;18.50;99.90
31837;DHT22;18401;49.344;6.240;2023-07-13T06:31:44;18.60;99.90
31837;DHT22;18401;49.344;6.240;2023-07-13T06:34:09;18.70;99.90
31837;DHT22;18401;49.344;6.240;2023-07-13T06:36:35;18.90;99.90
31837;DHT22;18401;49.344;6.240;2023-07-13T06:39:02;19.10;99.90
31837;DHT22;18401;49.344;6.240;2023-07-13T06:41:28;19.10;99.90
31837;DHT22;18401;49.344;6.240;2023-07-13T06:43:53;19.00;99.90
31837;DHT22;18401;49.344;6.240;2023-07-13T06:46:23;18.90;99.90
31837;DHT22;18401;49.344;6.240;2023-07-13T06:48:48;18.90;99.90
31837;DHT22;18401;49.344;6.240;2023-07-13T06:51:14;19.20;99.90
31837;DHT22;18401;49.344;6.240;2023-07-13T06:53:40;19.50;99.90
31837;DHT22;18401;49.344;6.240;2023-07-13T06:56:06;19.70;99.90
31837;DHT22;18401;49.344;6.240;2023-07-13T06:58:33;19.70;99.90
31837;DHT22;18401;49.344;6.240;2023-07-13T07:00:59;19.70;99.90
31837;DHT22;18401;49.344;6.240;2023-07-13T07:03:25;19.80;97.80
31837;DHT22;18401;49.344;6.240;2023-07-13T07:05:51;19.80;91.50
31837;DHT22;18401;49.344;6.240;2023-07-13T07:08:16;19.80;88.20
31837;DHT22;18401;49.344;6.240;2023-07-13T07:10:42;19.90;81.60
31837;DHT22;18401;49.344;6.240;2023-07-13T07:13:08;20.10;77.00
31837;DHT22;18401;49.344;6.240;2023-07-13T07:15:35;20.10;69.70
31837;DHT22;18401;49.344;6.240;2023-07-13T07:18:00;20.30;78.50
31837;DHT22;18401;49.344;6.240;2023-07-13T07:20:26;20.20;75.00
31837;DHT22;18401;49.344;6.240;2023-07-13T07:22:52;20.20;65.40
31837;DHT22;18401;49.344;6.240;2023-07-13T07:25:18;20.40;75.90
31837;DHT22;18401;49.344;6.240;2023-07-13T07:27:44;20.40;63.50
31837;DHT22;18401;49.344;6.240;2023-07-13T07:30:10;20.20;56.30
31837;DHT22;18401;49.344;6.240;2023-07-13T07:32:36;20.10;60.90
31837;DHT22;18401;49.344;6.240;2023-07-13T07:35:02;19.90;64.30
31837;DHT22;18401;49.344;6.240;2023-07-13T07:37:28;19.90;69.30
31837;DHT22;18401;49.344;6.240;2023-07-13T07:39:54;20.10;72.50
31837;DHT22;18401;49.344;6.240;2023-07-13T07:42:20;20.40;65.00
31837;DHT22;18401;49.344;6.240;2023-07-13T07:44:45;20.80;56.60
31837;DHT22;18401;49.344;6.240;2023-07-13T07:47:11;21.00;50.40
31837;DHT22;18401;49.344;6.240;2023-07-13T07:49:37;21.00;51.70
31837;DHT22;18401;49.344;6.240;2023-07-13T07:52:04;20.90;49.60
31837;DHT22;18401;49.344;6.240;2023-07-13T07:54:29;20.70;38.60
31837;DHT22;18401;49.344;6.240;2023-07-13T07:56:55;20.70;47.30
31837;DHT22;18401;49.344;6.240;2023-07-13T07:59:21;20.60;43.90
31837;DHT22;18401;49.344;6.240;2023-07-13T08:01:47;20.50;40.60
31837;DHT22;18401;49.344;6.240;2023-07-13T08:04:15;20.50;46.20
31837;DHT22;18401;49.344;6.240;2023-07-13T08:06:41;20.50;45.50
31837;DHT22;18401;49.344;6.240;2023-07-13T08:09:07;20.80;41.60
31837;DHT22;18401;49.344;6.240;2023-07-13T08:11:33;21.20;35.30
31837;DHT22;18401;49.344;6.240;2023-07-13T08:13:59;21.00;33.10
31837;DHT22;18401;49.344;6.240;2023-07-13T08:16:26;20.80;45.00
31837;DHT22;18401;49.344;6.240;2023-07-13T08:18:52;20.80;40.20
31837;DHT22;18401;49.344;6.240;2023-07-13T08:21:18;21.30;49.00
31837;DHT22;18401;49.344;6.240;2023-07-13T08:23:47;21.60;34.80
31837;DHT22;18401;49.344;6.240;2023-07-13T08:26:12;21.80;30.10
31837;DHT22;18401;49.344;6.240;2023-07-13T08:28:38;22.20;36.20
31837;DHT22;18401;49.344;6.240;2023-07-13T08:31:06;22.10;20.40
31837;DHT22;18401;49.344;6.240;2023-07-13T08:33:33;22.00;12.80
31837;DHT22;18401;49.344;6.240;2023-07-13T08:35:59;21.50;15.30
31837;DHT22;18401;49.344;6.240;2023-07-13T08:38:25;21.50;29.10
31837;DHT22;18401;49.344;6.240;2023-07-13T08:40:55;21.90;27.00
31837;DHT22;18401;49.344;6.240;2023-07-13T08:43:34;21.80;17.10
31837;DHT22;18401;49.344;6.240;2023-07-13T08:46:25;21.70;23.30
31837;DHT22;18401;49.344;6.240;2023-07-13T08:49:10;22.20;30.00
31837;DHT22;18401;49.344;6.240;2023-07-13T08:54:30;22.00;30.20
31837;DHT22;18401;49.344;6.240;2023-07-13T08:56:56;21.80;16.40
31837;DHT22;18401;49.344;6.240;2023-07-13T08:59:26;22.20;30.70
31837;DHT22;18401;49.344;6.240;2023-07-13T09:02:20;22.30;23.00
31837;DHT22;18401;49.344;6.240;2023-07-13T09:04:49;22.10;13.50
31837;DHT22;18401;49.344;6.240;2023-07-13T09:07:40;21.70;16.50
31837;DHT22;18401;49.344;6.240;2023-07-13T09:10:28;22.20;19.70
31837;DHT22;18401;49.344;6.240;2023-07-13T09:15:32;22.30;20.50
31837;DHT22;18401;49.344;6.240;2023-07-13T09:18:14;22.30;10.00
31837;DHT22;18401;49.344;6.240;2023-07-13T09:20:47;22.10;5.40
31837;DHT22;18401;49.344;6.240;2023-07-13T09:23:20;22.00;7.30
31837;DHT22;18401;49.344;6.240;2023-07-13T09:25:48;22.00;18.60
31837;DHT22;18401;49.344;6.240;2023-07-13T09:28:26;21.80;15.90
31837;DHT22;18401;49.344;6.240;2023-07-13T09:33:52;21.90;15.70
31837;DHT22;18401;49.344;6.240;2023-07-13T09:36:32;21.90;18.40
31837;DHT22;18401;49.344;6.240;2023-07-13T09:39:29;22.20;27.80
31837;DHT22;18401;49.344;6.240;2023-07-13T09:44:35;22.40;9.60
31837;DHT22;18401;49.344;6.240;2023-07-13T09:47:02;22.20;18.60
31837;DHT22;18401;49.344;6.240;2023-07-13T09:49:35;22.00;15.40
31837;DHT22;18401;49.344;6.240;2023-07-13T09:52:07;21.90;17.20
31837;DHT22;18401;49.344;6.240;2023-07-13T09:54:36;22.70;20.90
31837;DHT22;18401;49.344;6.240;2023-07-13T09:57:11;23.40;16.20
31837;DHT22;18401;49.344;6.240;2023-07-13T09:59:40;23.20;4.10
31837;DHT22;18401;49.344;6.240;2023-07-13T10:02:29;23.60;1.00
31837;DHT22;18401;49.344;6.240;2023-07-13T10:04:57;23.30;1.00
31837;DHT22;18401;49.344;6.240;2023-07-13T10:07:24;23.50;1.00
31837;DHT22;18401;49.344;6.240;2023-07-13T10:09:57;22.90;1.00
31837;DHT22;18401;49.344;6.240;2023-07-13T10:12:24;23.00;1.00
31837;DHT22;18401;49.344;6.240;2023-07-13T10:14:54;22.70;1.00
31837;DHT22;18401;49.344;6.240;2023-07-13T10:17:27;22.90;1.00
31837;DHT22;18401;49.344;6.240;2023-07-13T10:20:04;22.70;1.00
31837;DHT22;18401;49.344;6.240;2023-07-13T10:22:44;23.20;1.00
31837;DHT22;18401;49.344;6.240;2023-07-13T10:25:21;23.60;1.00
31837;DHT22;18401;49.344;6.240;2023-07-13T10:27:50;23.30;1.00
31837;DHT22;18401;49.344;6.240;2023-07-13T10:30:29;23.20;1.00
31837;DHT22;18401;49.344;6.240;2023-07-13T10:33:00;23.90;1.00
31837;DHT22;18401;49.344;6.240;2023-07-13T10:35:27;23.40;1.00
31837;DHT22;18401;49.344;6.240;2023-07-13T10:38:01;22.90;1.00
31837;DHT22;18401;49.344;6.240;2023-07-13T10:40:59;22.80;1.00
31837;DHT22;18401;49.344;6.240;2023-07-13T10:43:33;23.40;1.00
31837;DHT22;18401;49.344;6.240;2023-07-13T10:46:02;24.30;1.00
31837;DHT22;18401;49.344;6.240;2023-07-13T10:48:30;24.30;1.00
31837;DHT22;18401;49.344;6.240;2023-07-13T10:50:57;24.00;1.00
31837;DHT22;18401;49.344;6.240;2023-07-13T10:53:34;23.70;1.00
31837;DHT22;18401;49.344;6.240;2023-07-13T10:58:41;23.70;1.00
31837;DHT22;18401;49.344;6.240;2023-07-13T11:01:08;23.90;1.00
31837;DHT22;18401;49.344;6.240;2023-07-13T11:03:46;24.10;1.00
31837;DHT22;18401;49.344;6.240;2023-07-13T11:06:37;24.30;1.00
31837;DHT22;18401;49.344;6.240;2023-07-13T11:09:39;24.20;1.00
31837;DHT22;18401;49.344;6.240;2023-07-13T11:12:28;23.50;1.00
31837;DHT22;18401;49.344;6.240;2023-07-13T11:25:34;23.30;1.00
31837;DHT22;18401;49.344;6.240;2023-07-13T11:36:00;23.10;1.00
31837;DHT22;18401;49.344;6.240;2023-07-13T11:38:39;23.10;1.00
31837;DHT22;18401;49.344;6.240;2023-07-13T11:41:15;23.40;1.00
31837;DHT22;18401;49.344;6.240;2023-07-13T11:43:41;23.80;1.00
31837;DHT22;18401;49.344;6.240;2023-07-13T11:46:21;23.90;1.00
31837;DHT22;18401;49.344;6.240;2023-07-13T11:48:48;24.60;1.00
31837;DHT22;18401;49.344;6.240;2023-07-13T11:51:23;25.60;1.00
31837;DHT22;18401;49.344;6.240;2023-07-13T11:53:51;25.90;1.00
31837;DHT22;18401;49.344;6.240;2023-07-13T11:56:17;25.90;1.00
31837;DHT22;18401;49.344;6.240;2023-07-13T11:58:44;26.60;1.00
31837;DHT22;18401;49.344;6.240;2023-07-13T12:01:21;25.50;99.90
31837;DHT22;18401;49.344;6.240;2023-07-13T12:03:47;26.00;1.00
31837;DHT22;18401;49.344;6.240;2023-07-13T12:06:28;25.90;99.90
31837;DHT22;18401;49.344;6.240;2023-07-13T12:09:03;25.10;99.90
31837;DHT22;18401;49.344;6.240;2023-07-13T12:11:29;25.00;1.00
31837;DHT22;18401;49.344;6.240;2023-07-13T12:13:55;25.00;1.00
31837;DHT22;18401;49.344;6.240;2023-07-13T12:16:30;25.30;1.00
31837;DHT22;18401;49.344;6.240;2023-07-13T12:18:59;24.50;1.00
31837;DHT22;18401;49.344;6.240;2023-07-13T12:21:39;24.30;1.00
31837;DHT22;18401;49.344;6.240;2023-07-13T12:24:14;24.70;1.00
31837;DHT22;18401;49.344;6.240;2023-07-13T12:26:40;24.00;1.00
31837;DHT22;18401;49.344;6.240;2023-07-13T12:29:07;23.60;1.00
31837;DHT22;18401;49.344;6.240;2023-07-13T12:31:45;23.50;1.00
31837;DHT22;18401;49.344;6.240;2023-07-13T12:34:21;24.30;1.00
31837;DHT22;18401;49.344;6.240;2023-07-13T12:39:23;26.90;99.90
31837;DHT22;18401;49.344;6.240;2023-07-13T12:41:51;25.90;99.90
31837;DHT22;18401;49.344;6.240;2023-07-13T12:44:29;24.70;99.90
31837;DHT22;18401;49.344;6.240;2023-07-13T12:47:02;23.70;1.00
31837;DHT22;18401;49.344;6.240;2023-07-13T12:49:31;23.60;1.00
31837;DHT22;18401;49.344;6.240;2023-07-13T12:52:02;24.60;1.00
31837;DHT22;18401;49.344;6.240;2023-07-13T12:54:29;24.70;1.00
31837;DHT22;18401;49.344;6.240;2023-07-13T12:56:57;24.20;1.00
31837;DHT22;18401;49.344;6.240;2023-07-13T12:59:28;24.00;1.00
31837;DHT22;18401;49.344;6.240;2023-07-13T13:01:54;24.20;1.00
31837;DHT22;18401;49.344;6.240;2023-07-13T13:04:20;24.40;1.00
31837;DHT22;18401;49.344;6.240;2023-07-13T13:06:47;24.60;1.00
31837;DHT22;18401;49.344;6.240;2023-07-13T13:09:15;24.40;1.00
31837;DHT22;18401;49.344;6.240;2023-07-13T13:11:42;24.10;1.00
31837;DHT22;18401;49.344;6.240;2023-07-13T13:14:08;24.10;1.00
31837;DHT22;18401;49.344;6.240;2023-07-13T13:16:47;24.10;1.00
31837;DHT22;18401;49.344;6.240;2023-07-13T13:19:20;23.60;1.00
31837;DHT22;18401;49.344;6.240;2023-07-13T13:21:47;24.10;1.00
31837;DHT22;18401;49.344;6.240;2023-07-13T13:24:17;23.90;1.00
31837;DHT22;18401;49.344;6.240;2023-07-13T13:26:44;24.10;1.00
31837;DHT22;18401;49.344;6.240;2023-07-13T13:29:21;24.30;1.00
31837;DHT22;18401;49.344;6.240;2023-07-13T13:31:49;24.00;1.00
31837;DHT22;18401;49.344;6.240;2023-07-13T13:34:16;23.70;1.00
31837;DHT22;18401;49.344;6.240;2023-07-13T13:36:43;23.80;1.00
31837;DHT22;18401;49.344;6.240;2023-07-13T13:39:33;23.70;1.00
31837;DHT22;18401;49.344;6.240;2023-07-13T13:41:59;24.10;1.00
31837;DHT22;18401;49.344;6.240;2023-07-13T13:44:24;24.50;1.00
31837;DHT22;18401;49.344;6.240;2023-07-13T13:46:54;24.50;1.00
31837;DHT22;18401;49.344;6.240;2023-07-13T13:49:25;24.50;1.00
31837;DHT22;18401;49.344;6.240;2023-07-13T13:51:52;24.40;1.00
31837;DHT22;18401;49.344;6.240;2023-07-13T13:54:19;24.10;1.00
31837;DHT22;18401;49.344;6.240;2023-07-13T13:56:50;23.90;1.00
31837;DHT22;18401;49.344;6.240;2023-07-13T13:59:16;24.10;1.00
31837;DHT22;18401;49.344;6.240;2023-07-13T14:01:44;24.10;1.00
31837;DHT22;18401;49.344;6.240;2023-07-13T14:04:16;24.10;1.00
31837;DHT22;18401;49.344;6.240;2023-07-13T14:06:43;24.70;1.00
31837;DHT22;18401;49.344;6.240;2023-07-13T14:09:11;25.30;1.00
31837;DHT22;18401;49.344;6.240;2023-07-13T14:11:37;25.00;1.00
31837;DHT22;18401;49.344;6.240;2023-07-13T14:14:03;25.10;1.00
31837;DHT22;18401;49.344;6.240;2023-07-13T14:16:31;24.70;1.00
31837;DHT22;18401;49.344;6.240;2023-07-13T14:18:58;24.90;1.00
31837;DHT22;18401;49.344;6.240;2023-07-13T14:21:26;24.90;1.00
31837;DHT22;18401;49.344;6.240;2023-07-13T14:23:52;25.10;1.00
31837;DHT22;18401;49.344;6.240;2023-07-13T14:26:19;25.00;1.00
31837;DHT22;18401;49.344;6.240;2023-07-13T14:28:47;25.30;1.00
31837;DHT22;18401;49.344;6.240;2023-07-13T14:31:15;25.00;1.00
31837;DHT22;18401;49.344;6.240;2023-07-13T14:33:41;24.50;1.00
31837;DHT22;18401;49.344;6.240;2023-07-13T14:38:49;27.30;99.90
31837;DHT22;18401;49.344;6.240;2023-07-13T14:41:15;27.40;99.90
31837;DHT22;18401;49.344;6.240;2023-07-13T14:43:41;27.20;99.90
31837;DHT22;18401;49.344;6.240;2023-07-13T14:46:11;27.10;99.90
31837;DHT22;18401;49.344;6.240;2023-07-13T14:48:43;27.60;99.90
31837;DHT22;18401;49.344;6.240;2023-07-13T14:51:09;27.20;99.90
31837;DHT22;18401;49.344;6.240;2023-07-13T14:53:35;26.40;99.90
31837;DHT22;18401;49.344;6.240;2023-07-13T14:56:12;24.80;99.90
31837;DHT22;18401;49.344;6.240;2023-07-13T14:58:38;24.40;1.00
31837;DHT22;18401;49.344;6.240;2023-07-13T15:01:12;24.20;1.00
31837;DHT22;18401;49.344;6.240;2023-07-13T15:03:43;25.00;1.00
31837;DHT22;18401;49.344;6.240;2023-07-13T15:06:11;26.00;1.00
31837;DHT22;18401;49.344;6.240;2023-07-13T15:08:37;26.00;99.90
31837;DHT22;18401;49.344;6.240;2023-07-13T15:11:03;25.70;99.90
31837;DHT22;18401;49.344;6.240;2023-07-13T15:13:30;26.00;1.00
31837;DHT22;18401;49.344;6.240;2023-07-13T15:15:56;25.80;99.90
31837;DHT22;18401;49.344;6.240;2023-07-13T15:18:23;24.90;1.00
31837;DHT22;18401;49.344;6.240;2023-07-13T15:20:51;24.50;1.00
31837;DHT22;18401;49.344;6.240;2023-07-13T15:23:18;24.10;1.00
31837;DHT22;18401;49.344;6.240;2023-07-13T15:25:44;24.10;1.00
31837;DHT22;18401;49.344;6.240;2023-07-13T15:28:10;24.30;1.00
31837;DHT22;18401;49.344;6.240;2023-07-13T15:30:43;24.50;1.00
31837;DHT22;18401;49.344;6.240;2023-07-13T15:35:39;26.40;99.90
31837;DHT22;18401;49.344;6.240;2023-07-13T15:38:23;26.10;99.90
31837;DHT22;18401;49.344;6.240;2023-07-13T15:40:50;25.10;99.90
31837;DHT22;18401;49.344;6.240;2023-07-13T15:43:18;24.30;1.00
31837;DHT22;18401;49.344;6.240;2023-07-13T15:45:45;24.20;1.00
31837;DHT22;18401;49.344;6.240;2023-07-13T15:48:21;24.70;1.00
31837;DHT22;18401;49.344;6.240;2023-07-13T15:50:52;24.30;1.00
31837;DHT22;18401;49.344;6.240;2023-07-13T15:53:39;24.70;1.00
31837;DHT22;18401;49.344;6.240;2023-07-13T15:58:46;24.60;99.90
31837;DHT22;18401;49.344;6.240;2023-07-13T16:01:12;23.90;1.00
31837;DHT22;18401;49.344;6.240;2023-07-13T16:03:38;23.70;1.00
31837;DHT22;18401;49.344;6.240;2023-07-13T16:06:12;23.70;1.00
31837;DHT22;18401;49.344;6.240;2023-07-13T16:08:39;23.70;1.00
31837;DHT22;18401;49.344;6.240;2023-07-13T16:11:12;23.70;1.00
31837;DHT22;18401;49.344;6.240;2023-07-13T16:13:42;23.70;1.00
31837;DHT22;18401;49.344;6.240;2023-07-13T16:16:12;24.80;1.00
31837;DHT22;18401;49.344;6.240;2023-07-13T16:18:38;25.20;1.00
31837;DHT22;18401;49.344;6.240;2023-07-13T16:21:09;25.40;1.00
31837;DHT22;18401;49.344;6.240;2023-07-13T16:23:36;25.80;1.00
31837;DHT22;18401;49.344;6.240;2023-07-13T16:26:03;25.20;99.90
31837;DHT22;18401;49.344;6.240;2023-07-13T16:28:29;24.40;1.00